Anoka, MN (55303)

2:10 PM CDT on August 03, 2015 (GMT -0500)
Central Park - Trott Brook | | Change Station
CLOSE
Current Station
Personal Weather Station
Location: Ramsey, MN
Elevation: 882 ft
Nearby Weather Stations

Elev 882 ft 45.27 °N, 93.45 °W | Updated 36 seconds ago

Clear
Clear
80.4 °F
Feels Like 80 °F
N
5.6
Wind Variable Wind from West
Gusts 5.8 mph

Today
High -- | Low -- °F
--% Chance of Precip.
Yesterday
High -- | Low -- °F
Precip. -- in
6:00 AM 8:38 PM
Waning Gibbous, 85% visible
Pressure 29.90 in
Visibility 10.0 miles
Clouds Scattered Clouds 6500 ft
Heat Index 80 °F
Dew Point 50 °F
Humidity 35%
Rainfall 0.00 in
Snow Depth Not available.
UV 8 out of 12
Pollen 8.00 out of 12
Air Quality Not available.
Flu Activity Not available.
METAR KANE 031855Z 31013G18KT 10SM SCT065 25/09 A2990

More Conditions Fewer Conditions

Pressure 29.90 in
Visibility 10.0 miles
Clouds Scattered Clouds 6500 ft
Heat Index 80 °F
Dew Point 50 °F
Humidity 35%
Rainfall 0.00 in
Snow Depth Not available.
UV 8 out of 12
Pollen 8.00 out of 12
Air Quality Not available.
Flu Activity Not available.
METAR KANE 031855Z 31013G18KT 10SM SCT065 25/09 A2990

More Conditions Fewer Conditions

10-Day Weather Forecast

×

Almanac

Astronomy

Aug. 03, 2015 Rise Set
Actual Time
Civil Twilight
Nautical Twilight
Astronomical Twilight
Moon
Length of Visible Light
Length of Day
Tomorrow will be .
, % of the Moon is Illuminated

Today's Extremes

State Highs State Lows

Community

WunderPhotos

Upload Photos

1,843,707 photos uploaded!

WunderBlogs® & News

Nearby

Air Quality

  Air Quality AQ Index Pollutant
Not available.

Snow Depth

Station Depth Elevation

Earthquake Activity

City Distance Mag. Time & Date
Minimum magnitude displayed is 2.5.

Coastal Water Temperatures

Place Temperature

Stations

Nearby Weather Stations

Station Location Temp. Windchill Dew Point Humidity Wind Precip. Elev Updated Type